sensor_id;sensor_type;location;lat;lon;timestamp;P1;durP1;ratioP1;P2;durP2;ratioP2
5690;SDS011;2870;42.680;23.364;2022-12-18T00:02:08;11.67;;;8.37;;
5690;SDS011;2870;42.680;23.364;2022-12-18T00:04:34;10.93;;;8.10;;
5690;SDS011;2870;42.680;23.364;2022-12-18T00:07:01;11.17;;;8.40;;
5690;SDS011;2870;42.680;23.364;2022-12-18T00:09:28;10.73;;;8.90;;
5690;SDS011;2870;42.680;23.364;2022-12-18T00:11:56;11.87;;;9.17;;
5690;SDS011;2870;42.680;23.364;2022-12-18T00:14:24;13.43;;;8.93;;
5690;SDS011;2870;42.680;23.364;2022-12-18T00:16:50;14.30;;;9.67;;
5690;SDS011;2870;42.680;23.364;2022-12-18T00:19:17;12.77;;;9.20;;
5690;SDS011;2870;42.680;23.364;2022-12-18T00:21:45;16.13;;;9.53;;
5690;SDS011;2870;42.680;23.364;2022-12-18T00:24:11;12.87;;;8.83;;
5690;SDS011;2870;42.680;23.364;2022-12-18T00:26:39;13.90;;;9.07;;
5690;SDS011;2870;42.680;23.364;2022-12-18T00:29:09;13.40;;;9.70;;
5690;SDS011;2870;42.680;23.364;2022-12-18T00:31:39;13.53;;;9.13;;
5690;SDS011;2870;42.680;23.364;2022-12-18T00:34:08;13.27;;;9.80;;
5690;SDS011;2870;42.680;23.364;2022-12-18T00:36:36;13.23;;;9.73;;
5690;SDS011;2870;42.680;23.364;2022-12-18T00:39:03;12.27;;;8.73;;
5690;SDS011;2870;42.680;23.364;2022-12-18T00:41:31;12.07;;;9.27;;
5690;SDS011;2870;42.680;23.364;2022-12-18T00:44:18;14.43;;;10.17;;
5690;SDS011;2870;42.680;23.364;2022-12-18T00:46:45;13.20;;;8.70;;
5690;SDS011;2870;42.680;23.364;2022-12-18T00:49:13;11.10;;;8.50;;
5690;SDS011;2870;42.680;23.364;2022-12-18T00:51:40;13.60;;;8.67;;
5690;SDS011;2870;42.680;23.364;2022-12-18T00:54:07;15.00;;;9.00;;
5690;SDS011;2870;42.680;23.364;2022-12-18T00:56:34;9.00;;;7.60;;
5690;SDS011;2870;42.680;23.364;2022-12-18T00:59:02;12.40;;;8.00;;
5690;SDS011;2870;42.680;23.364;2022-12-18T01:01:30;12.00;;;8.33;;
5690;SDS011;2870;42.680;23.364;2022-12-18T01:03:59;12.30;;;9.60;;
5690;SDS011;2870;42.680;23.364;2022-12-18T01:06:26;9.07;;;7.93;;
5690;SDS011;2870;42.680;23.364;2022-12-18T01:08:53;16.90;;;10.03;;
5690;SDS011;2870;42.680;23.364;2022-12-18T01:11:20;12.00;;;9.47;;
5690;SDS011;2870;42.680;23.364;2022-12-18T01:13:48;12.50;;;8.83;;
5690;SDS011;2870;42.680;23.364;2022-12-18T01:16:15;11.80;;;8.17;;
5690;SDS011;2870;42.680;23.364;2022-12-18T01:18:44;12.00;;;9.10;;
5690;SDS011;2870;42.680;23.364;2022-12-18T01:21:12;12.60;;;9.17;;
5690;SDS011;2870;42.680;23.364;2022-12-18T01:23:40;12.20;;;9.50;;
5690;SDS011;2870;42.680;23.364;2022-12-18T01:26:08;18.03;;;10.70;;
5690;SDS011;2870;42.680;23.364;2022-12-18T01:28:36;13.77;;;9.73;;
5690;SDS011;2870;42.680;23.364;2022-12-18T01:31:12;11.77;;;8.53;;
5690;SDS011;2870;42.680;23.364;2022-12-18T01:33:42;14.37;;;10.13;;
5690;SDS011;2870;42.680;23.364;2022-12-18T01:36:17;14.30;;;10.20;;
5690;SDS011;2870;42.680;23.364;2022-12-18T01:38:45;13.60;;;10.10;;
5690;SDS011;2870;42.680;23.364;2022-12-18T01:41:13;13.33;;;9.80;;
5690;SDS011;2870;42.680;23.364;2022-12-18T01:43:41;12.13;;;9.40;;
5690;SDS011;2870;42.680;23.364;2022-12-18T01:46:12;14.70;;;10.80;;
5690;SDS011;2870;42.680;23.364;2022-12-18T01:48:39;13.77;;;9.97;;
5690;SDS011;2870;42.680;23.364;2022-12-18T01:51:09;17.40;;;10.80;;
5690;SDS011;2870;42.680;23.364;2022-12-18T01:53:37;15.40;;;8.97;;
5690;SDS011;2870;42.680;23.364;2022-12-18T01:56:06;15.80;;;10.37;;
5690;SDS011;2870;42.680;23.364;2022-12-18T01:58:36;20.47;;;10.70;;
5690;SDS011;2870;42.680;23.364;2022-12-18T02:01:09;16.10;;;10.33;;
5690;SDS011;2870;42.680;23.364;2022-12-18T02:03:36;15.30;;;9.87;;
5690;SDS011;2870;42.680;23.364;2022-12-18T02:06:06;14.30;;;10.50;;
5690;SDS011;2870;42.680;23.364;2022-12-18T02:08:40;13.87;;;9.90;;
5690;SDS011;2870;42.680;23.364;2022-12-18T02:11:18;15.50;;;10.07;;
5690;SDS011;2870;42.680;23.364;2022-12-18T02:13:53;15.03;;;9.90;;
5690;SDS011;2870;42.680;23.364;2022-12-18T02:16:29;15.23;;;9.23;;
5690;SDS011;2870;42.680;23.364;2022-12-18T02:19:06;14.07;;;9.23;;
5690;SDS011;2870;42.680;23.364;2022-12-18T02:21:45;12.27;;;8.37;;
5690;SDS011;2870;42.680;23.364;2022-12-18T02:24:19;12.13;;;8.70;;
5690;SDS011;2870;42.680;23.364;2022-12-18T02:26:58;11.00;;;8.03;;
5690;SDS011;2870;42.680;23.364;2022-12-18T02:29:29;13.03;;;9.67;;
5690;SDS011;2870;42.680;23.364;2022-12-18T02:31:59;12.03;;;8.97;;
5690;SDS011;2870;42.680;23.364;2022-12-18T02:34:28;14.20;;;9.80;;
5690;SDS011;2870;42.680;23.364;2022-12-18T02:36:58;12.90;;;9.17;;
5690;SDS011;2870;42.680;23.364;2022-12-18T02:39:28;14.03;;;8.90;;
5690;SDS011;2870;42.680;23.364;2022-12-18T02:41:58;16.37;;;10.20;;
5690;SDS011;2870;42.680;23.364;2022-12-18T02:44:32;12.50;;;9.30;;
5690;SDS011;2870;42.680;23.364;2022-12-18T02:46:59;13.93;;;10.07;;
5690;SDS011;2870;42.680;23.364;2022-12-18T02:49:29;15.10;;;9.00;;
5690;SDS011;2870;42.680;23.364;2022-12-18T02:52:05;12.93;;;9.17;;
5690;SDS011;2870;42.680;23.364;2022-12-18T02:54:40;12.83;;;8.37;;
5690;SDS011;2870;42.680;23.364;2022-12-18T02:57:18;13.10;;;8.60;;
5690;SDS011;2870;42.680;23.364;2022-12-18T02:59:55;20.80;;;10.23;;
5690;SDS011;2870;42.680;23.364;2022-12-18T03:02:29;12.20;;;9.30;;
5690;SDS011;2870;42.680;23.364;2022-12-18T03:05:05;13.33;;;9.80;;
5690;SDS011;2870;42.680;23.364;2022-12-18T03:07:38;12.40;;;9.50;;
5690;SDS011;2870;42.680;23.364;2022-12-18T03:10:11;17.03;;;9.37;;
5690;SDS011;2870;42.680;23.364;2022-12-18T03:12:43;13.37;;;9.37;;
5690;SDS011;2870;42.680;23.364;2022-12-18T03:15:14;12.77;;;9.63;;
5690;SDS011;2870;42.680;23.364;2022-12-18T03:17:48;14.07;;;10.90;;
5690;SDS011;2870;42.680;23.364;2022-12-18T03:20:20;12.73;;;9.40;;
5690;SDS011;2870;42.680;23.364;2022-12-18T03:22:51;11.87;;;8.80;;
5690;SDS011;2870;42.680;23.364;2022-12-18T03:25:20;11.30;;;9.20;;
5690;SDS011;2870;42.680;23.364;2022-12-18T03:27:49;16.83;;;9.93;;
5690;SDS011;2870;42.680;23.364;2022-12-18T03:30:20;12.87;;;9.23;;
5690;SDS011;2870;42.680;23.364;2022-12-18T03:32:48;12.60;;;9.47;;
5690;SDS011;2870;42.680;23.364;2022-12-18T03:35:21;12.03;;;9.73;;
5690;SDS011;2870;42.680;23.364;2022-12-18T03:37:50;12.20;;;9.00;;
5690;SDS011;2870;42.680;23.364;2022-12-18T03:40:18;12.30;;;9.33;;
5690;SDS011;2870;42.680;23.364;2022-12-18T03:42:49;14.57;;;9.57;;
5690;SDS011;2870;42.680;23.364;2022-12-18T03:45:19;12.57;;;8.80;;
5690;SDS011;2870;42.680;23.364;2022-12-18T03:47:57;12.30;;;9.77;;
5690;SDS011;2870;42.680;23.364;2022-12-18T03:50:29;9.53;;;8.47;;
5690;SDS011;2870;42.680;23.364;2022-12-18T03:53:06;13.83;;;9.97;;
5690;SDS011;2870;42.680;23.364;2022-12-18T03:55:43;12.00;;;8.83;;
5690;SDS011;2870;42.680;23.364;2022-12-18T03:58:13;19.20;;;9.23;;
5690;SDS011;2870;42.680;23.364;2022-12-18T04:00:43;12.63;;;9.60;;
5690;SDS011;2870;42.680;23.364;2022-12-18T04:03:11;13.33;;;9.33;;
5690;SDS011;2870;42.680;23.364;2022-12-18T04:05:40;12.03;;;9.20;;
5690;SDS011;2870;42.680;23.364;2022-12-18T04:08:09;14.60;;;9.37;;
5690;SDS011;2870;42.680;23.364;2022-12-18T04:10:36;14.30;;;10.97;;
5690;SDS011;2870;42.680;23.364;2022-12-18T04:13:03;15.27;;;9.30;;
5690;SDS011;2870;42.680;23.364;2022-12-18T04:15:32;15.60;;;10.60;;
5690;SDS011;2870;42.680;23.364;2022-12-18T04:18:01;16.13;;;10.30;;
5690;SDS011;2870;42.680;23.364;2022-12-18T04:20:28;13.47;;;10.00;;
5690;SDS011;2870;42.680;23.364;2022-12-18T04:22:55;15.80;;;10.37;;
5690;SDS011;2870;42.680;23.364;2022-12-18T04:25:22;15.07;;;10.33;;
5690;SDS011;2870;42.680;23.364;2022-12-18T04:27:49;14.63;;;10.40;;
5690;SDS011;2870;42.680;23.364;2022-12-18T04:30:15;13.60;;;9.60;;
5690;SDS011;2870;42.680;23.364;2022-12-18T04:32:44;15.43;;;9.97;;
5690;SDS011;2870;42.680;23.364;2022-12-18T04:35:10;17.93;;;10.77;;
5690;SDS011;2870;42.680;23.364;2022-12-18T04:37:37;18.40;;;11.30;;
5690;SDS011;2870;42.680;23.364;2022-12-18T04:40:05;14.13;;;9.90;;
5690;SDS011;2870;42.680;23.364;2022-12-18T04:42:32;16.87;;;11.07;;
5690;SDS011;2870;42.680;23.364;2022-12-18T04:44:59;14.53;;;10.40;;
5690;SDS011;2870;42.680;23.364;2022-12-18T04:47:26;20.90;;;11.37;;
5690;SDS011;2870;42.680;23.364;2022-12-18T04:49:54;14.77;;;10.70;;
5690;SDS011;2870;42.680;23.364;2022-12-18T04:52:21;16.80;;;11.50;;
5690;SDS011;2870;42.680;23.364;2022-12-18T04:54:48;18.10;;;12.17;;
5690;SDS011;2870;42.680;23.364;2022-12-18T04:57:15;24.60;;;11.37;;
5690;SDS011;2870;42.680;23.364;2022-12-18T04:59:43;21.37;;;11.17;;
5690;SDS011;2870;42.680;23.364;2022-12-18T05:02:10;17.43;;;11.10;;
5690;SDS011;2870;42.680;23.364;2022-12-18T05:04:37;15.57;;;11.00;;
5690;SDS011;2870;42.680;23.364;2022-12-18T05:07:06;16.83;;;11.40;;
5690;SDS011;2870;42.680;23.364;2022-12-18T05:09:33;20.17;;;12.17;;
5690;SDS011;2870;42.680;23.364;2022-12-18T05:11:59;17.20;;;11.60;;
5690;SDS011;2870;42.680;23.364;2022-12-18T05:14:26;19.50;;;11.40;;
5690;SDS011;2870;42.680;23.364;2022-12-18T05:16:54;19.03;;;12.07;;
5690;SDS011;2870;42.680;23.364;2022-12-18T05:19:21;18.80;;;11.97;;
5690;SDS011;2870;42.680;23.364;2022-12-18T05:21:48;19.83;;;11.93;;
5690;SDS011;2870;42.680;23.364;2022-12-18T05:24:16;18.37;;;11.87;;
5690;SDS011;2870;42.680;23.364;2022-12-18T05:26:43;20.20;;;12.07;;
5690;SDS011;2870;42.680;23.364;2022-12-18T05:29:10;23.07;;;12.37;;
5690;SDS011;2870;42.680;23.364;2022-12-18T05:31:37;20.97;;;12.63;;
5690;SDS011;2870;42.680;23.364;2022-12-18T05:34:04;21.57;;;13.27;;
5690;SDS011;2870;42.680;23.364;2022-12-18T05:36:31;18.20;;;12.47;;
5690;SDS011;2870;42.680;23.364;2022-12-18T05:38:58;22.53;;;12.33;;
5690;SDS011;2870;42.680;23.364;2022-12-18T05:41:27;23.00;;;12.53;;
5690;SDS011;2870;42.680;23.364;2022-12-18T05:43:54;18.57;;;12.53;;
5690;SDS011;2870;42.680;23.364;2022-12-18T05:46:21;20.50;;;12.83;;
5690;SDS011;2870;42.680;23.364;2022-12-18T05:48:49;20.43;;;12.43;;
5690;SDS011;2870;42.680;23.364;2022-12-18T05:51:17;20.37;;;12.83;;
5690;SDS011;2870;42.680;23.364;2022-12-18T05:53:47;18.27;;;12.60;;
5690;SDS011;2870;42.680;23.364;2022-12-18T05:56:15;22.23;;;13.03;;
5690;SDS011;2870;42.680;23.364;2022-12-18T05:58:46;18.43;;;11.87;;
5690;SDS011;2870;42.680;23.364;2022-12-18T06:01:14;23.33;;;13.43;;
5690;SDS011;2870;42.680;23.364;2022-12-18T06:03:42;22.00;;;12.30;;
5690;SDS011;2870;42.680;23.364;2022-12-18T06:06:13;21.10;;;12.73;;
5690;SDS011;2870;42.680;23.364;2022-12-18T06:08:40;21.80;;;12.73;;
5690;SDS011;2870;42.680;23.364;2022-12-18T06:11:07;15.77;;;11.73;;
5690;SDS011;2870;42.680;23.364;2022-12-18T06:13:34;19.07;;;12.10;;
5690;SDS011;2870;42.680;23.364;2022-12-18T06:16:03;24.57;;;14.30;;
5690;SDS011;2870;42.680;23.364;2022-12-18T06:18:30;23.77;;;14.03;;
5690;SDS011;2870;42.680;23.364;2022-12-18T06:20:57;20.50;;;13.40;;
5690;SDS011;2870;42.680;23.364;2022-12-18T06:23:25;19.93;;;13.60;;
5690;SDS011;2870;42.680;23.364;2022-12-18T06:25:53;22.13;;;13.90;;
5690;SDS011;2870;42.680;23.364;2022-12-18T06:28:20;24.43;;;13.97;;
5690;SDS011;2870;42.680;23.364;2022-12-18T06:30:47;21.73;;;14.57;;
5690;SDS011;2870;42.680;23.364;2022-12-18T06:33:16;22.47;;;13.63;;
5690;SDS011;2870;42.680;23.364;2022-12-18T06:35:43;22.07;;;14.90;;
5690;SDS011;2870;42.680;23.364;2022-12-18T06:38:10;18.43;;;13.13;;
5690;SDS011;2870;42.680;23.364;2022-12-18T06:40:37;20.87;;;13.13;;
5690;SDS011;2870;42.680;23.364;2022-12-18T06:43:05;24.10;;;14.50;;
5690;SDS011;2870;42.680;23.364;2022-12-18T06:45:32;22.50;;;13.60;;
5690;SDS011;2870;42.680;23.364;2022-12-18T06:47:59;20.53;;;13.70;;
5690;SDS011;2870;42.680;23.364;2022-12-18T06:50:28;17.67;;;13.67;;
5690;SDS011;2870;42.680;23.364;2022-12-18T06:52:55;20.20;;;12.20;;
5690;SDS011;2870;42.680;23.364;2022-12-18T06:55:22;20.80;;;12.40;;
5690;SDS011;2870;42.680;23.364;2022-12-18T06:57:49;20.57;;;13.00;;
5690;SDS011;2870;42.680;23.364;2022-12-18T07:00:16;23.93;;;13.50;;
5690;SDS011;2870;42.680;23.364;2022-12-18T07:02:43;22.27;;;13.60;;
5690;SDS011;2870;42.680;23.364;2022-12-18T07:05:10;21.83;;;13.00;;
5690;SDS011;2870;42.680;23.364;2022-12-18T07:07:38;21.63;;;13.13;;
5690;SDS011;2870;42.680;23.364;2022-12-18T07:10:05;16.80;;;11.80;;
5690;SDS011;2870;42.680;23.364;2022-12-18T07:12:32;22.80;;;12.73;;
5690;SDS011;2870;42.680;23.364;2022-12-18T07:14:59;21.77;;;13.10;;
5690;SDS011;2870;42.680;23.364;2022-12-18T07:17:26;20.33;;;13.50;;
5690;SDS011;2870;42.680;23.364;2022-12-18T07:19:52;22.90;;;13.97;;
5690;SDS011;2870;42.680;23.364;2022-12-18T07:22:19;24.73;;;14.47;;
5690;SDS011;2870;42.680;23.364;2022-12-18T07:24:48;22.57;;;13.00;;
5690;SDS011;2870;42.680;23.364;2022-12-18T07:27:14;24.63;;;15.13;;
5690;SDS011;2870;42.680;23.364;2022-12-18T07:29:41;23.97;;;13.63;;
5690;SDS011;2870;42.680;23.364;2022-12-18T07:32:08;29.20;;;16.90;;
5690;SDS011;2870;42.680;23.364;2022-12-18T07:34:35;21.80;;;14.53;;
5690;SDS011;2870;42.680;23.364;2022-12-18T07:37:01;23.30;;;15.30;;
5690;SDS011;2870;42.680;23.364;2022-12-18T07:39:28;28.30;;;16.50;;
5690;SDS011;2870;42.680;23.364;2022-12-18T07:41:56;28.93;;;15.27;;
5690;SDS011;2870;42.680;23.364;2022-12-18T07:44:40;27.83;;;15.73;;
5690;SDS011;2870;42.680;23.364;2022-12-18T07:47:07;25.77;;;15.80;;
5690;SDS011;2870;42.680;23.364;2022-12-18T07:49:34;23.50;;;14.67;;
5690;SDS011;2870;42.680;23.364;2022-12-18T07:52:01;27.80;;;14.70;;
5690;SDS011;2870;42.680;23.364;2022-12-18T07:54:28;27.40;;;15.23;;
5690;SDS011;2870;42.680;23.364;2022-12-18T07:56:55;23.30;;;14.80;;
5690;SDS011;2870;42.680;23.364;2022-12-18T07:59:23;25.80;;;16.43;;
5690;SDS011;2870;42.680;23.364;2022-12-18T08:01:50;30.97;;;16.70;;
5690;SDS011;2870;42.680;23.364;2022-12-18T08:04:17;27.77;;;16.60;;
5690;SDS011;2870;42.680;23.364;2022-12-18T08:06:44;26.47;;;17.03;;
5690;SDS011;2870;42.680;23.364;2022-12-18T08:09:11;23.00;;;15.53;;
5690;SDS011;2870;42.680;23.364;2022-12-18T08:11:38;23.17;;;14.40;;
5690;SDS011;2870;42.680;23.364;2022-12-18T08:14:06;25.07;;;15.67;;
5690;SDS011;2870;42.680;23.364;2022-12-18T08:16:32;27.33;;;17.67;;
5690;SDS011;2870;42.680;23.364;2022-12-18T08:18:59;28.20;;;15.37;;
5690;SDS011;2870;42.680;23.364;2022-12-18T08:21:27;28.03;;;16.03;;
5690;SDS011;2870;42.680;23.364;2022-12-18T08:23:55;25.27;;;15.77;;
5690;SDS011;2870;42.680;23.364;2022-12-18T08:26:24;28.80;;;16.40;;
5690;SDS011;2870;42.680;23.364;2022-12-18T08:28:53;25.80;;;15.90;;
5690;SDS011;2870;42.680;23.364;2022-12-18T08:31:22;26.20;;;15.60;;
5690;SDS011;2870;42.680;23.364;2022-12-18T08:33:49;27.07;;;15.33;;
5690;SDS011;2870;42.680;23.364;2022-12-18T08:36:17;25.80;;;14.70;;
5690;SDS011;2870;42.680;23.364;2022-12-18T08:38:44;28.80;;;16.83;;
5690;SDS011;2870;42.680;23.364;2022-12-18T08:41:12;27.87;;;15.97;;
5690;SDS011;2870;42.680;23.364;2022-12-18T08:43:40;23.00;;;14.97;;
5690;SDS011;2870;42.680;23.364;2022-12-18T08:46:26;33.17;;;16.87;;
5690;SDS011;2870;42.680;23.364;2022-12-18T08:48:57;25.77;;;15.60;;
5690;SDS011;2870;42.680;23.364;2022-12-18T08:51:24;31.90;;;17.77;;
5690;SDS011;2870;42.680;23.364;2022-12-18T08:53:51;25.93;;;15.60;;
5690;SDS011;2870;42.680;23.364;2022-12-18T08:56:17;27.23;;;17.17;;
5690;SDS011;2870;42.680;23.364;2022-12-18T08:58:44;26.77;;;15.43;;
5690;SDS011;2870;42.680;23.364;2022-12-18T09:01:11;27.40;;;16.57;;
5690;SDS011;2870;42.680;23.364;2022-12-18T09:03:41;31.27;;;16.47;;
5690;SDS011;2870;42.680;23.364;2022-12-18T09:06:07;22.67;;;14.13;;
5690;SDS011;2870;42.680;23.364;2022-12-18T09:08:34;27.33;;;15.10;;
5690;SDS011;2870;42.680;23.364;2022-12-18T09:11:02;21.10;;;13.83;;
5690;SDS011;2870;42.680;23.364;2022-12-18T09:13:29;24.47;;;13.63;;
5690;SDS011;2870;42.680;23.364;2022-12-18T09:15:56;25.73;;;12.93;;
5690;SDS011;2870;42.680;23.364;2022-12-18T09:18:23;24.20;;;13.67;;
5690;SDS011;2870;42.680;23.364;2022-12-18T09:20:52;24.77;;;14.77;;
5690;SDS011;2870;42.680;23.364;2022-12-18T09:23:19;23.70;;;14.40;;
5690;SDS011;2870;42.680;23.364;2022-12-18T09:25:46;24.30;;;13.33;;
5690;SDS011;2870;42.680;23.364;2022-12-18T09:28:14;25.10;;;13.37;;
5690;SDS011;2870;42.680;23.364;2022-12-18T09:30:44;28.90;;;14.63;;
5690;SDS011;2870;42.680;23.364;2022-12-18T09:33:12;21.20;;;13.97;;
5690;SDS011;2870;42.680;23.364;2022-12-18T09:35:40;25.90;;;15.10;;
5690;SDS011;2870;42.680;23.364;2022-12-18T09:38:09;21.93;;;13.97;;
5690;SDS011;2870;42.680;23.364;2022-12-18T09:40:40;22.63;;;13.83;;
5690;SDS011;2870;42.680;23.364;2022-12-18T09:43:13;23.20;;;13.43;;
5690;SDS011;2870;42.680;23.364;2022-12-18T09:45:43;25.13;;;14.00;;
5690;SDS011;2870;42.680;23.364;2022-12-18T09:48:14;19.97;;;13.43;;
5690;SDS011;2870;42.680;23.364;2022-12-18T09:50:45;23.33;;;12.97;;
5690;SDS011;2870;42.680;23.364;2022-12-18T09:53:16;27.73;;;14.43;;
5690;SDS011;2870;42.680;23.364;2022-12-18T09:55:46;20.00;;;13.13;;
5690;SDS011;2870;42.680;23.364;2022-12-18T09:58:19;25.00;;;14.40;;
5690;SDS011;2870;42.680;23.364;2022-12-18T10:00:53;21.50;;;14.00;;
5690;SDS011;2870;42.680;23.364;2022-12-18T10:03:20;24.03;;;13.03;;
5690;SDS011;2870;42.680;23.364;2022-12-18T10:05:50;23.27;;;14.17;;
5690;SDS011;2870;42.680;23.364;2022-12-18T10:08:28;23.20;;;14.43;;
5690;SDS011;2870;42.680;23.364;2022-12-18T10:11:12;19.00;;;11.20;;
5690;SDS011;2870;42.680;23.364;2022-12-18T10:13:48;21.57;;;13.33;;
5690;SDS011;2870;42.680;23.364;2022-12-18T10:16:23;21.30;;;13.33;;
5690;SDS011;2870;42.680;23.364;2022-12-18T10:21:50;19.37;;;12.63;;
5690;SDS011;2870;42.680;23.364;2022-12-18T10:24:26;18.77;;;12.23;;
5690;SDS011;2870;42.680;23.364;2022-12-18T10:27:04;21.70;;;13.20;;
5690;SDS011;2870;42.680;23.364;2022-12-18T10:29:38;23.97;;;13.23;;
5690;SDS011;2870;42.680;23.364;2022-12-18T10:32:06;21.37;;;13.50;;
5690;SDS011;2870;42.680;23.364;2022-12-18T10:34:33;23.30;;;13.13;;
5690;SDS011;2870;42.680;23.364;2022-12-18T10:37:00;24.67;;;15.57;;
5690;SDS011;2870;42.680;23.364;2022-12-18T10:39:33;24.00;;;15.40;;
5690;SDS011;2870;42.680;23.364;2022-12-18T10:42:09;24.50;;;13.90;;
5690;SDS011;2870;42.680;23.364;2022-12-18T10:44:38;24.63;;;13.90;;
5690;SDS011;2870;42.680;23.364;2022-12-18T10:47:06;19.07;;;12.70;;
5690;SDS011;2870;42.680;23.364;2022-12-18T10:49:37;23.20;;;14.67;;
5690;SDS011;2870;42.680;23.364;2022-12-18T10:52:15;28.43;;;16.07;;
5690;SDS011;2870;42.680;23.364;2022-12-18T10:54:49;23.07;;;14.23;;
5690;SDS011;2870;42.680;23.364;2022-12-18T10:57:29;30.80;;;14.60;;
5690;SDS011;2870;42.680;23.364;2022-12-18T10:59:59;25.30;;;14.47;;
5690;SDS011;2870;42.680;23.364;2022-12-18T11:02:46;26.13;;;14.13;;
5690;SDS011;2870;42.680;23.364;2022-12-18T11:05:27;26.07;;;15.43;;
5690;SDS011;2870;42.680;23.364;2022-12-18T11:07:55;23.37;;;14.97;;
5690;SDS011;2870;42.680;23.364;2022-12-18T11:10:25;24.97;;;15.57;;
5690;SDS011;2870;42.680;23.364;2022-12-18T11:12:56;28.33;;;15.27;;
5690;SDS011;2870;42.680;23.364;2022-12-18T11:15:35;25.00;;;15.07;;
5690;SDS011;2870;42.680;23.364;2022-12-18T11:18:01;30.73;;;13.93;;
5690;SDS011;2870;42.680;23.364;2022-12-18T11:20:30;27.67;;;15.20;;
5690;SDS011;2870;42.680;23.364;2022-12-18T11:23:00;28.67;;;16.47;;
5690;SDS011;2870;42.680;23.364;2022-12-18T11:25:31;19.83;;;13.40;;
5690;SDS011;2870;42.680;23.364;2022-12-18T11:28:00;21.80;;;13.53;;
5690;SDS011;2870;42.680;23.364;2022-12-18T11:30:28;28.67;;;16.60;;
5690;SDS011;2870;42.680;23.364;2022-12-18T11:32:57;25.87;;;13.80;;
5690;SDS011;2870;42.680;23.364;2022-12-18T11:35:37;23.87;;;13.30;;
5690;SDS011;2870;42.680;23.364;2022-12-18T11:38:10;23.80;;;15.00;;
5690;SDS011;2870;42.680;23.364;2022-12-18T11:40:45;32.43;;;15.80;;
5690;SDS011;2870;42.680;23.364;2022-12-18T11:43:20;27.97;;;16.33;;
5690;SDS011;2870;42.680;23.364;2022-12-18T11:45:53;20.80;;;13.40;;
5690;SDS011;2870;42.680;23.364;2022-12-18T11:48:23;25.47;;;15.40;;
5690;SDS011;2870;42.680;23.364;2022-12-18T11:50:54;25.47;;;15.33;;
5690;SDS011;2870;42.680;23.364;2022-12-18T11:53:22;25.47;;;15.07;;
5690;SDS011;2870;42.680;23.364;2022-12-18T11:55:56;26.93;;;14.60;;
5690;SDS011;2870;42.680;23.364;2022-12-18T11:58:32;21.17;;;12.90;;
5690;SDS011;2870;42.680;23.364;2022-12-18T12:01:19;22.40;;;13.80;;
5690;SDS011;2870;42.680;23.364;2022-12-18T12:06:59;25.17;;;14.20;;
5690;SDS011;2870;42.680;23.364;2022-12-18T12:09:40;27.17;;;14.57;;
5690;SDS011;2870;42.680;23.364;2022-12-18T12:12:24;28.10;;;15.47;;
5690;SDS011;2870;42.680;23.364;2022-12-18T12:15:12;24.50;;;14.90;;
5690;SDS011;2870;42.680;23.364;2022-12-18T12:17:47;27.77;;;15.30;;
5690;SDS011;2870;42.680;23.364;2022-12-18T12:20:21;26.57;;;15.37;;
5690;SDS011;2870;42.680;23.364;2022-12-18T12:22:57;29.03;;;15.70;;
5690;SDS011;2870;42.680;23.364;2022-12-18T12:25:33;26.50;;;16.30;;
5690;SDS011;2870;42.680;23.364;2022-12-18T12:28:12;25.00;;;14.87;;
5690;SDS011;2870;42.680;23.364;2022-12-18T12:30:51;26.00;;;16.23;;
5690;SDS011;2870;42.680;23.364;2022-12-18T12:33:29;23.20;;;14.00;;
5690;SDS011;2870;42.680;23.364;2022-12-18T12:36:08;25.90;;;15.20;;
5690;SDS011;2870;42.680;23.364;2022-12-18T12:38:42;27.50;;;14.47;;
5690;SDS011;2870;42.680;23.364;2022-12-18T12:41:12;27.27;;;16.40;;
5690;SDS011;2870;42.680;23.364;2022-12-18T12:43:57;22.53;;;14.07;;
5690;SDS011;2870;42.680;23.364;2022-12-18T12:46:27;28.00;;;14.80;;
5690;SDS011;2870;42.680;23.364;2022-12-18T12:48:59;23.17;;;13.87;;
5690;SDS011;2870;42.680;23.364;2022-12-18T12:51:30;24.80;;;14.20;;
5690;SDS011;2870;42.680;23.364;2022-12-18T12:54:00;27.10;;;15.30;;
5690;SDS011;2870;42.680;23.364;2022-12-18T12:56:36;24.07;;;14.07;;
5690;SDS011;2870;42.680;23.364;2022-12-18T12:59:13;27.23;;;14.87;;
5690;SDS011;2870;42.680;23.364;2022-12-18T13:01:48;25.07;;;14.47;;
5690;SDS011;2870;42.680;23.364;2022-12-18T13:04:21;27.00;;;14.43;;
5690;SDS011;2870;42.680;23.364;2022-12-18T13:06:56;29.40;;;15.20;;
5690;SDS011;2870;42.680;23.364;2022-12-18T13:09:30;26.07;;;15.40;;
5690;SDS011;2870;42.680;23.364;2022-12-18T13:12:01;23.37;;;14.97;;
5690;SDS011;2870;42.680;23.364;2022-12-18T13:14:48;24.47;;;15.53;;
5690;SDS011;2870;42.680;23.364;2022-12-18T13:17:15;26.67;;;15.70;;
5690;SDS011;2870;42.680;23.364;2022-12-18T13:19:50;24.30;;;13.77;;
5690;SDS011;2870;42.680;23.364;2022-12-18T13:22:21;21.77;;;13.47;;
5690;SDS011;2870;42.680;23.364;2022-12-18T13:24:50;26.73;;;15.00;;
5690;SDS011;2870;42.680;23.364;2022-12-18T13:30:43;24.30;;;13.80;;
5690;SDS011;2870;42.680;23.364;2022-12-18T13:33:37;29.47;;;15.03;;
5690;SDS011;2870;42.680;23.364;2022-12-18T13:36:11;24.70;;;14.00;;
5690;SDS011;2870;42.680;23.364;2022-12-18T13:38:40;23.00;;;15.53;;
5690;SDS011;2870;42.680;23.364;2022-12-18T13:43:51;21.93;;;13.67;;
5690;SDS011;2870;42.680;23.364;2022-12-18T13:46:21;23.27;;;14.50;;
5690;SDS011;2870;42.680;23.364;2022-12-18T13:49:00;32.87;;;16.53;;
5690;SDS011;2870;42.680;23.364;2022-12-18T13:51:30;29.87;;;16.07;;
5690;SDS011;2870;42.680;23.364;2022-12-18T13:53:59;23.07;;;15.03;;
5690;SDS011;2870;42.680;23.364;2022-12-18T13:56:28;28.70;;;16.27;;
5690;SDS011;2870;42.680;23.364;2022-12-18T13:59:09;28.07;;;15.90;;
5690;SDS011;2870;42.680;23.364;2022-12-18T14:01:44;28.17;;;16.57;;
5690;SDS011;2870;42.680;23.364;2022-12-18T14:04:16;28.23;;;17.20;;
5690;SDS011;2870;42.680;23.364;2022-12-18T14:06:46;28.87;;;15.63;;
5690;SDS011;2870;42.680;23.364;2022-12-18T14:09:14;24.57;;;14.80;;
5690;SDS011;2870;42.680;23.364;2022-12-18T14:11:45;26.63;;;14.57;;
5690;SDS011;2870;42.680;23.364;2022-12-18T14:14:13;24.37;;;14.57;;
5690;SDS011;2870;42.680;23.364;2022-12-18T14:16:44;20.50;;;14.00;;
5690;SDS011;2870;42.680;23.364;2022-12-18T14:19:12;26.17;;;15.67;;
5690;SDS011;2870;42.680;23.364;2022-12-18T14:21:45;26.17;;;14.43;;
5690;SDS011;2870;42.680;23.364;2022-12-18T14:24:13;22.80;;;14.47;;
5690;SDS011;2870;42.680;23.364;2022-12-18T14:26:41;18.73;;;12.73;;
5690;SDS011;2870;42.680;23.364;2022-12-18T14:29:19;24.53;;;13.50;;
5690;SDS011;2870;42.680;23.364;2022-12-18T14:32:09;23.47;;;13.40;;
5690;SDS011;2870;42.680;23.364;2022-12-18T14:34:37;22.33;;;12.97;;
5690;SDS011;2870;42.680;23.364;2022-12-18T14:37:04;23.07;;;13.60;;
5690;SDS011;2870;42.680;23.364;2022-12-18T14:39:32;24.50;;;14.67;;
5690;SDS011;2870;42.680;23.364;2022-12-18T14:41:59;24.30;;;14.40;;
5690;SDS011;2870;42.680;23.364;2022-12-18T14:44:26;20.27;;;13.33;;
5690;SDS011;2870;42.680;23.364;2022-12-18T14:46:53;21.90;;;13.73;;
5690;SDS011;2870;42.680;23.364;2022-12-18T14:49:23;26.33;;;14.77;;
5690;SDS011;2870;42.680;23.364;2022-12-18T14:51:53;23.00;;;13.60;;
5690;SDS011;2870;42.680;23.364;2022-12-18T14:54:26;24.20;;;13.53;;
5690;SDS011;2870;42.680;23.364;2022-12-18T14:56:55;24.20;;;13.40;;
5690;SDS011;2870;42.680;23.364;2022-12-18T14:59:26;21.67;;;13.20;;
5690;SDS011;2870;42.680;23.364;2022-12-18T15:01:57;22.67;;;12.80;;
5690;SDS011;2870;42.680;23.364;2022-12-18T15:04:30;26.00;;;13.30;;
5690;SDS011;2870;42.680;23.364;2022-12-18T15:07:11;24.83;;;14.67;;
5690;SDS011;2870;42.680;23.364;2022-12-18T15:09:41;26.43;;;12.80;;